sensor_id;sensor_type;location;lat;lon;timestamp;P1;durP1;ratioP1;P2;durP2;ratioP2
42590;SDS011;28218;53.342;-6.216;2023-06-19T00:02:26;9.00;;;5.00;;
42590;SDS011;28218;53.342;-6.216;2023-06-19T00:04:55;10.65;;;4.72;;
42590;SDS011;28218;53.342;-6.216;2023-06-19T00:07:23;9.80;;;5.05;;
42590;SDS011;28218;53.342;-6.216;2023-06-19T00:09:51;10.05;;;5.13;;
42590;SDS011;28218;53.342;-6.216;2023-06-19T00:12:19;8.57;;;4.80;;
42590;SDS011;28218;53.342;-6.216;2023-06-19T00:14:48;7.93;;;4.63;;
42590;SDS011;28218;53.342;-6.216;2023-06-19T00:17:17;9.93;;;5.32;;
42590;SDS011;28218;53.342;-6.216;2023-06-19T00:19:46;8.85;;;5.50;;
42590;SDS011;28218;53.342;-6.216;2023-06-19T00:22:15;6.03;;;4.20;;
42590;SDS011;28218;53.342;-6.216;2023-06-19T00:24:43;8.45;;;4.78;;
42590;SDS011;28218;53.342;-6.216;2023-06-19T00:27:12;7.53;;;4.25;;
42590;SDS011;28218;53.342;-6.216;2023-06-19T00:29:40;7.65;;;5.40;;
42590;SDS011;28218;53.342;-6.216;2023-06-19T00:32:08;9.18;;;4.78;;
42590;SDS011;28218;53.342;-6.216;2023-06-19T00:34:38;9.60;;;5.03;;
42590;SDS011;28218;53.342;-6.216;2023-06-19T00:37:09;7.05;;;4.80;;
42590;SDS011;28218;53.342;-6.216;2023-06-19T00:39:39;7.45;;;4.50;;
42590;SDS011;28218;53.342;-6.216;2023-06-19T00:42:10;7.50;;;4.60;;
42590;SDS011;28218;53.342;-6.216;2023-06-19T00:44:38;8.27;;;4.93;;
42590;SDS011;28218;53.342;-6.216;2023-06-19T00:47:07;8.93;;;4.70;;
42590;SDS011;28218;53.342;-6.216;2023-06-19T00:49:37;8.93;;;5.30;;
42590;SDS011;28218;53.342;-6.216;2023-06-19T00:52:06;9.50;;;5.07;;
42590;SDS011;28218;53.342;-6.216;2023-06-19T00:54:35;9.25;;;5.03;;
42590;SDS011;28218;53.342;-6.216;2023-06-19T00:57:03;10.70;;;4.95;;
42590;SDS011;28218;53.342;-6.216;2023-06-19T00:59:32;5.60;;;4.38;;
42590;SDS011;28218;53.342;-6.216;2023-06-19T01:02:01;5.70;;;3.67;;
42590;SDS011;28218;53.342;-6.216;2023-06-19T01:04:29;4.20;;;3.20;;
42590;SDS011;28218;53.342;-6.216;2023-06-19T01:07:00;7.78;;;4.25;;
42590;SDS011;28218;53.342;-6.216;2023-06-19T01:09:37;6.82;;;3.30;;
42590;SDS011;28218;53.342;-6.216;2023-06-19T01:12:10;7.07;;;3.42;;
42590;SDS011;28218;53.342;-6.216;2023-06-19T01:14:46;5.50;;;2.58;;
42590;SDS011;28218;53.342;-6.216;2023-06-19T01:17:17;7.90;;;3.70;;
42590;SDS011;28218;53.342;-6.216;2023-06-19T01:19:47;9.45;;;3.38;;
42590;SDS011;28218;53.342;-6.216;2023-06-19T01:22:23;7.28;;;3.10;;
42590;SDS011;28218;53.342;-6.216;2023-06-19T01:24:52;5.80;;;3.55;;
42590;SDS011;28218;53.342;-6.216;2023-06-19T01:27:21;6.50;;;3.20;;
42590;SDS011;28218;53.342;-6.216;2023-06-19T01:29:50;8.32;;;3.50;;
42590;SDS011;28218;53.342;-6.216;2023-06-19T01:32:22;6.77;;;3.63;;
42590;SDS011;28218;53.342;-6.216;2023-06-19T01:34:56;7.47;;;3.47;;
42590;SDS011;28218;53.342;-6.216;2023-06-19T01:37:27;5.28;;;3.13;;
42590;SDS011;28218;53.342;-6.216;2023-06-19T01:40:00;8.45;;;3.67;;
42590;SDS011;28218;53.342;-6.216;2023-06-19T01:42:32;6.53;;;3.30;;
42590;SDS011;28218;53.342;-6.216;2023-06-19T01:45:02;6.00;;;3.08;;
42590;SDS011;28218;53.342;-6.216;2023-06-19T01:47:30;4.78;;;3.00;;
42590;SDS011;28218;53.342;-6.216;2023-06-19T01:49:59;3.55;;;2.50;;
42590;SDS011;28218;53.342;-6.216;2023-06-19T01:52:29;6.35;;;3.67;;
42590;SDS011;28218;53.342;-6.216;2023-06-19T01:54:57;8.48;;;3.55;;
42590;SDS011;28218;53.342;-6.216;2023-06-19T01:57:25;6.82;;;3.50;;
42590;SDS011;28218;53.342;-6.216;2023-06-19T01:59:53;7.25;;;3.60;;
42590;SDS011;28218;53.342;-6.216;2023-06-19T02:02:23;13.70;;;3.70;;
42590;SDS011;28218;53.342;-6.216;2023-06-19T02:04:51;5.75;;;3.78;;
42590;SDS011;28218;53.342;-6.216;2023-06-19T02:07:20;5.78;;;3.38;;
42590;SDS011;28218;53.342;-6.216;2023-06-19T02:09:49;8.50;;;3.03;;
42590;SDS011;28218;53.342;-6.216;2023-06-19T02:12:17;6.22;;;3.35;;
42590;SDS011;28218;53.342;-6.216;2023-06-19T02:14:46;10.15;;;4.30;;
42590;SDS011;28218;53.342;-6.216;2023-06-19T02:17:14;7.47;;;3.50;;
42590;SDS011;28218;53.342;-6.216;2023-06-19T02:19:42;5.00;;;3.65;;
42590;SDS011;28218;53.342;-6.216;2023-06-19T02:22:11;4.72;;;3.13;;
42590;SDS011;28218;53.342;-6.216;2023-06-19T02:24:39;4.78;;;2.83;;
42590;SDS011;28218;53.342;-6.216;2023-06-19T02:27:09;6.68;;;3.08;;
42590;SDS011;28218;53.342;-6.216;2023-06-19T02:29:37;6.43;;;3.30;;
42590;SDS011;28218;53.342;-6.216;2023-06-19T02:32:06;9.73;;;3.67;;
42590;SDS011;28218;53.342;-6.216;2023-06-19T02:34:34;7.10;;;3.35;;
42590;SDS011;28218;53.342;-6.216;2023-06-19T02:37:03;8.40;;;3.60;;
42590;SDS011;28218;53.342;-6.216;2023-06-19T02:39:31;7.45;;;3.05;;
42590;SDS011;28218;53.342;-6.216;2023-06-19T02:42:00;5.60;;;2.90;;
42590;SDS011;28218;53.342;-6.216;2023-06-19T02:44:30;7.30;;;3.50;;
42590;SDS011;28218;53.342;-6.216;2023-06-19T02:46:58;8.07;;;3.22;;
42590;SDS011;28218;53.342;-6.216;2023-06-19T02:49:26;5.40;;;3.38;;
42590;SDS011;28218;53.342;-6.216;2023-06-19T02:51:55;9.13;;;3.80;;
42590;SDS011;28218;53.342;-6.216;2023-06-19T02:54:23;10.48;;;4.18;;
42590;SDS011;28218;53.342;-6.216;2023-06-19T02:56:51;6.90;;;3.00;;
42590;SDS011;28218;53.342;-6.216;2023-06-19T02:59:20;6.40;;;3.50;;
42590;SDS011;28218;53.342;-6.216;2023-06-19T03:01:50;8.57;;;3.88;;
42590;SDS011;28218;53.342;-6.216;2023-06-19T03:04:18;10.68;;;3.58;;
42590;SDS011;28218;53.342;-6.216;2023-06-19T03:06:46;8.63;;;3.35;;
42590;SDS011;28218;53.342;-6.216;2023-06-19T03:09:14;8.77;;;2.97;;
42590;SDS011;28218;53.342;-6.216;2023-06-19T03:11:42;7.00;;;3.63;;
42590;SDS011;28218;53.342;-6.216;2023-06-19T03:14:11;12.07;;;3.63;;
42590;SDS011;28218;53.342;-6.216;2023-06-19T03:16:39;8.23;;;2.97;;
42590;SDS011;28218;53.342;-6.216;2023-06-19T03:19:09;8.48;;;3.45;;
42590;SDS011;28218;53.342;-6.216;2023-06-19T03:21:37;9.80;;;3.28;;
42590;SDS011;28218;53.342;-6.216;2023-06-19T03:24:05;10.23;;;4.18;;
42590;SDS011;28218;53.342;-6.216;2023-06-19T03:26:33;10.00;;;3.85;;
42590;SDS011;28218;53.342;-6.216;2023-06-19T03:29:02;8.35;;;3.63;;
42590;SDS011;28218;53.342;-6.216;2023-06-19T03:31:30;6.85;;;3.58;;
42590;SDS011;28218;53.342;-6.216;2023-06-19T03:33:58;9.18;;;3.45;;
42590;SDS011;28218;53.342;-6.216;2023-06-19T03:36:28;13.48;;;3.67;;
42590;SDS011;28218;53.342;-6.216;2023-06-19T03:38:56;9.02;;;3.45;;
42590;SDS011;28218;53.342;-6.216;2023-06-19T03:41:24;11.23;;;3.80;;
42590;SDS011;28218;53.342;-6.216;2023-06-19T03:43:52;8.55;;;3.72;;
42590;SDS011;28218;53.342;-6.216;2023-06-19T03:46:21;9.95;;;4.00;;
42590;SDS011;28218;53.342;-6.216;2023-06-19T03:48:49;8.63;;;3.13;;
42590;SDS011;28218;53.342;-6.216;2023-06-19T03:51:17;12.15;;;3.33;;
42590;SDS011;28218;53.342;-6.216;2023-06-19T03:53:47;9.05;;;4.15;;
42590;SDS011;28218;53.342;-6.216;2023-06-19T03:56:16;9.38;;;3.67;;
42590;SDS011;28218;53.342;-6.216;2023-06-19T03:58:44;7.28;;;3.47;;
42590;SDS011;28218;53.342;-6.216;2023-06-19T04:01:12;9.00;;;3.80;;
42590;SDS011;28218;53.342;-6.216;2023-06-19T04:03:40;7.72;;;3.88;;
42590;SDS011;28218;53.342;-6.216;2023-06-19T04:06:09;9.13;;;4.03;;
42590;SDS011;28218;53.342;-6.216;2023-06-19T04:08:37;7.03;;;2.90;;
42590;SDS011;28218;53.342;-6.216;2023-06-19T04:11:07;7.30;;;2.88;;
42590;SDS011;28218;53.342;-6.216;2023-06-19T04:13:35;7.90;;;4.20;;
42590;SDS011;28218;53.342;-6.216;2023-06-19T04:16:04;7.55;;;3.30;;
42590;SDS011;28218;53.342;-6.216;2023-06-19T04:18:33;11.20;;;4.00;;
42590;SDS011;28218;53.342;-6.216;2023-06-19T04:21:01;9.93;;;3.55;;
42590;SDS011;28218;53.342;-6.216;2023-06-19T04:23:29;14.05;;;4.47;;
42590;SDS011;28218;53.342;-6.216;2023-06-19T04:25:57;8.77;;;4.90;;
42590;SDS011;28218;53.342;-6.216;2023-06-19T04:28:27;10.57;;;3.20;;
42590;SDS011;28218;53.342;-6.216;2023-06-19T04:30:55;9.77;;;3.45;;
42590;SDS011;28218;53.342;-6.216;2023-06-19T04:33:28;11.35;;;4.22;;
42590;SDS011;28218;53.342;-6.216;2023-06-19T04:35:56;5.88;;;3.20;;
42590;SDS011;28218;53.342;-6.216;2023-06-19T04:38:24;6.20;;;3.42;;
42590;SDS011;28218;53.342;-6.216;2023-06-19T04:40:53;8.02;;;3.10;;
42590;SDS011;28218;53.342;-6.216;2023-06-19T04:43:24;7.63;;;3.63;;
42590;SDS011;28218;53.342;-6.216;2023-06-19T04:45:53;7.85;;;3.10;;
42590;SDS011;28218;53.342;-6.216;2023-06-19T04:48:22;6.15;;;2.60;;
42590;SDS011;28218;53.342;-6.216;2023-06-19T04:50:52;8.05;;;3.08;;
42590;SDS011;28218;53.342;-6.216;2023-06-19T04:53:22;4.90;;;3.13;;
42590;SDS011;28218;53.342;-6.216;2023-06-19T04:55:51;6.38;;;2.70;;
42590;SDS011;28218;53.342;-6.216;2023-06-19T04:58:21;5.38;;;2.97;;
42590;SDS011;28218;53.342;-6.216;2023-06-19T05:00:50;8.57;;;3.28;;
42590;SDS011;28218;53.342;-6.216;2023-06-19T05:03:20;5.30;;;2.83;;
42590;SDS011;28218;53.342;-6.216;2023-06-19T05:05:49;7.80;;;2.88;;
42590;SDS011;28218;53.342;-6.216;2023-06-19T05:08:18;7.07;;;2.38;;
42590;SDS011;28218;53.342;-6.216;2023-06-19T05:10:46;6.10;;;2.88;;
42590;SDS011;28218;53.342;-6.216;2023-06-19T05:13:15;4.18;;;2.42;;
42590;SDS011;28218;53.342;-6.216;2023-06-19T05:15:44;5.75;;;2.70;;
42590;SDS011;28218;53.342;-6.216;2023-06-19T05:18:13;7.47;;;3.25;;
42590;SDS011;28218;53.342;-6.216;2023-06-19T05:20:43;10.38;;;4.05;;
42590;SDS011;28218;53.342;-6.216;2023-06-19T05:23:11;6.00;;;2.65;;
42590;SDS011;28218;53.342;-6.216;2023-06-19T05:25:39;10.13;;;2.72;;
42590;SDS011;28218;53.342;-6.216;2023-06-19T05:28:10;7.32;;;3.38;;
42590;SDS011;28218;53.342;-6.216;2023-06-19T05:30:38;8.15;;;2.60;;
42590;SDS011;28218;53.342;-6.216;2023-06-19T05:33:06;9.50;;;2.65;;
42590;SDS011;28218;53.342;-6.216;2023-06-19T05:35:36;10.30;;;2.85;;
42590;SDS011;28218;53.342;-6.216;2023-06-19T05:38:05;10.73;;;3.30;;
42590;SDS011;28218;53.342;-6.216;2023-06-19T05:40:34;9.73;;;2.97;;
42590;SDS011;28218;53.342;-6.216;2023-06-19T05:43:02;6.22;;;2.80;;
42590;SDS011;28218;53.342;-6.216;2023-06-19T05:45:31;4.22;;;2.40;;
42590;SDS011;28218;53.342;-6.216;2023-06-19T05:47:59;7.03;;;2.45;;
42590;SDS011;28218;53.342;-6.216;2023-06-19T05:50:28;5.10;;;2.55;;
42590;SDS011;28218;53.342;-6.216;2023-06-19T05:52:57;8.73;;;2.70;;
42590;SDS011;28218;53.342;-6.216;2023-06-19T05:55:27;3.65;;;2.20;;
42590;SDS011;28218;53.342;-6.216;2023-06-19T05:57:55;4.53;;;2.45;;
42590;SDS011;28218;53.342;-6.216;2023-06-19T06:00:24;8.88;;;2.72;;
42590;SDS011;28218;53.342;-6.216;2023-06-19T06:02:52;7.20;;;2.88;;
42590;SDS011;28218;53.342;-6.216;2023-06-19T06:05:21;4.28;;;2.72;;
42590;SDS011;28218;53.342;-6.216;2023-06-19T06:07:51;3.90;;;1.80;;
42590;SDS011;28218;53.342;-6.216;2023-06-19T06:10:19;6.03;;;2.50;;
42590;SDS011;28218;53.342;-6.216;2023-06-19T06:12:49;5.53;;;2.10;;
42590;SDS011;28218;53.342;-6.216;2023-06-19T06:15:18;4.00;;;2.03;;
42590;SDS011;28218;53.342;-6.216;2023-06-19T06:17:47;7.80;;;2.65;;
42590;SDS011;28218;53.342;-6.216;2023-06-19T06:20:15;6.20;;;2.33;;
42590;SDS011;28218;53.342;-6.216;2023-06-19T06:22:43;9.05;;;2.13;;
42590;SDS011;28218;53.342;-6.216;2023-06-19T06:25:12;4.57;;;2.35;;
42590;SDS011;28218;53.342;-6.216;2023-06-19T06:27:40;5.15;;;1.90;;
42590;SDS011;28218;53.342;-6.216;2023-06-19T06:30:11;4.03;;;1.67;;
42590;SDS011;28218;53.342;-6.216;2023-06-19T06:32:41;4.10;;;2.22;;
42590;SDS011;28218;53.342;-6.216;2023-06-19T06:35:10;5.50;;;2.08;;
42590;SDS011;28218;53.342;-6.216;2023-06-19T06:37:38;7.95;;;2.00;;
42590;SDS011;28218;53.342;-6.216;2023-06-19T06:40:07;4.95;;;2.03;;
42590;SDS011;28218;53.342;-6.216;2023-06-19T06:42:38;5.50;;;1.90;;
42590;SDS011;28218;53.342;-6.216;2023-06-19T06:45:07;5.45;;;2.10;;
42590;SDS011;28218;53.342;-6.216;2023-06-19T06:47:37;3.63;;;1.73;;
42590;SDS011;28218;53.342;-6.216;2023-06-19T06:50:07;4.53;;;1.75;;
42590;SDS011;28218;53.342;-6.216;2023-06-19T06:52:36;3.38;;;2.28;;
42590;SDS011;28218;53.342;-6.216;2023-06-19T06:55:05;2.35;;;1.92;;
42590;SDS011;28218;53.342;-6.216;2023-06-19T06:57:34;4.60;;;1.85;;
42590;SDS011;28218;53.342;-6.216;2023-06-19T07:00:02;4.13;;;1.95;;
42590;SDS011;28218;53.342;-6.216;2023-06-19T07:02:31;3.88;;;1.75;;
42590;SDS011;28218;53.342;-6.216;2023-06-19T07:05:00;2.90;;;1.50;;
42590;SDS011;28218;53.342;-6.216;2023-06-19T07:07:29;1.90;;;1.63;;
42590;SDS011;28218;53.342;-6.216;2023-06-19T07:09:57;3.67;;;1.75;;
42590;SDS011;28218;53.342;-6.216;2023-06-19T07:12:25;5.50;;;2.17;;
42590;SDS011;28218;53.342;-6.216;2023-06-19T07:14:54;4.03;;;1.95;;
42590;SDS011;28218;53.342;-6.216;2023-06-19T07:17:22;4.25;;;1.73;;
42590;SDS011;28218;53.342;-6.216;2023-06-19T07:19:51;2.83;;;1.80;;
42590;SDS011;28218;53.342;-6.216;2023-06-19T07:22:20;3.88;;;1.88;;
42590;SDS011;28218;53.342;-6.216;2023-06-19T07:24:49;3.67;;;1.38;;
42590;SDS011;28218;53.342;-6.216;2023-06-19T07:27:17;6.30;;;1.85;;
42590;SDS011;28218;53.342;-6.216;2023-06-19T07:29:45;6.72;;;1.65;;
42590;SDS011;28218;53.342;-6.216;2023-06-19T07:32:14;4.25;;;2.03;;
42590;SDS011;28218;53.342;-6.216;2023-06-19T07:34:42;3.42;;;1.90;;
42590;SDS011;28218;53.342;-6.216;2023-06-19T07:37:11;2.85;;;1.50;;
42590;SDS011;28218;53.342;-6.216;2023-06-19T07:39:45;2.65;;;2.05;;
42590;SDS011;28218;53.342;-6.216;2023-06-19T07:42:14;4.33;;;1.87;;
42590;SDS011;28218;53.342;-6.216;2023-06-19T07:44:43;6.32;;;2.13;;
42590;SDS011;28218;53.342;-6.216;2023-06-19T07:47:11;2.25;;;1.70;;
42590;SDS011;28218;53.342;-6.216;2023-06-19T07:49:40;3.25;;;1.50;;
42590;SDS011;28218;53.342;-6.216;2023-06-19T07:52:08;5.78;;;1.98;;
42590;SDS011;28218;53.342;-6.216;2023-06-19T07:54:47;2.70;;;1.70;;
42590;SDS011;28218;53.342;-6.216;2023-06-19T07:57:17;4.03;;;1.95;;
42590;SDS011;28218;53.342;-6.216;2023-06-19T07:59:46;2.08;;;1.80;;
42590;SDS011;28218;53.342;-6.216;2023-06-19T08:02:15;3.83;;;1.75;;
42590;SDS011;28218;53.342;-6.216;2023-06-19T08:04:44;3.58;;;1.40;;
42590;SDS011;28218;53.342;-6.216;2023-06-19T08:07:13;2.78;;;1.92;;
42590;SDS011;28218;53.342;-6.216;2023-06-19T08:09:41;7.47;;;2.13;;
42590;SDS011;28218;53.342;-6.216;2023-06-19T08:12:11;3.17;;;1.70;;
42590;SDS011;28218;53.342;-6.216;2023-06-19T08:14:39;2.90;;;1.70;;
42590;SDS011;28218;53.342;-6.216;2023-06-19T08:17:08;2.60;;;1.63;;
42590;SDS011;28218;53.342;-6.216;2023-06-19T08:19:36;4.55;;;1.73;;
42590;SDS011;28218;53.342;-6.216;2023-06-19T08:22:05;3.00;;;1.33;;
42590;SDS011;28218;53.342;-6.216;2023-06-19T08:24:33;3.22;;;1.75;;
42590;SDS011;28218;53.342;-6.216;2023-06-19T08:27:05;2.42;;;1.30;;
42590;SDS011;28218;53.342;-6.216;2023-06-19T08:29:35;4.80;;;1.67;;
42590;SDS011;28218;53.342;-6.216;2023-06-19T08:32:03;3.25;;;1.58;;
42590;SDS011;28218;53.342;-6.216;2023-06-19T08:34:32;4.43;;;1.60;;
42590;SDS011;28218;53.342;-6.216;2023-06-19T08:37:01;6.22;;;1.52;;
42590;SDS011;28218;53.342;-6.216;2023-06-19T08:39:29;2.45;;;1.48;;
42590;SDS011;28218;53.342;-6.216;2023-06-19T08:41:57;1.60;;;1.33;;
42590;SDS011;28218;53.342;-6.216;2023-06-19T08:44:25;1.98;;;1.67;;
42590;SDS011;28218;53.342;-6.216;2023-06-19T08:46:57;3.35;;;1.40;;
42590;SDS011;28218;53.342;-6.216;2023-06-19T08:49:25;4.35;;;1.65;;
42590;SDS011;28218;53.342;-6.216;2023-06-19T08:51:53;3.28;;;1.35;;
42590;SDS011;28218;53.342;-6.216;2023-06-19T08:54:22;5.80;;;1.60;;
42590;SDS011;28218;53.342;-6.216;2023-06-19T08:56:51;3.38;;;1.30;;
42590;SDS011;28218;53.342;-6.216;2023-06-19T08:59:21;2.47;;;2.10;;
42590;SDS011;28218;53.342;-6.216;2023-06-19T09:01:50;1.60;;;1.20;;
42590;SDS011;28218;53.342;-6.216;2023-06-19T09:04:21;5.60;;;1.63;;
42590;SDS011;28218;53.342;-6.216;2023-06-19T09:06:50;1.85;;;1.30;;
42590;SDS011;28218;53.342;-6.216;2023-06-19T09:09:20;6.53;;;1.50;;
42590;SDS011;28218;53.342;-6.216;2023-06-19T09:11:59;8.27;;;2.30;;
42590;SDS011;28218;53.342;-6.216;2023-06-19T09:14:32;3.75;;;1.40;;
42590;SDS011;28218;53.342;-6.216;2023-06-19T09:17:01;2.45;;;1.25;;
42590;SDS011;28218;53.342;-6.216;2023-06-19T09:19:32;6.57;;;1.58;;
42590;SDS011;28218;53.342;-6.216;2023-06-19T09:22:01;3.13;;;1.85;;
42590;SDS011;28218;53.342;-6.216;2023-06-19T09:24:33;4.70;;;1.60;;
42590;SDS011;28218;53.342;-6.216;2023-06-19T09:27:06;3.30;;;1.33;;
42590;SDS011;28218;53.342;-6.216;2023-06-19T09:29:39;5.72;;;1.50;;
42590;SDS011;28218;53.342;-6.216;2023-06-19T09:32:18;2.70;;;1.30;;
42590;SDS011;28218;53.342;-6.216;2023-06-19T09:34:49;5.15;;;1.73;;
42590;SDS011;28218;53.342;-6.216;2023-06-19T09:37:22;4.03;;;2.10;;
42590;SDS011;28218;53.342;-6.216;2023-06-19T09:39:52;1.40;;;1.30;;
42590;SDS011;28218;53.342;-6.216;2023-06-19T09:42:24;1.45;;;1.35;;
42590;SDS011;28218;53.342;-6.216;2023-06-19T09:44:58;3.97;;;1.50;;
42590;SDS011;28218;53.342;-6.216;2023-06-19T09:47:29;3.78;;;1.63;;
42590;SDS011;28218;53.342;-6.216;2023-06-19T09:50:00;2.47;;;1.20;;
42590;SDS011;28218;53.342;-6.216;2023-06-19T09:52:30;2.60;;;1.50;;
42590;SDS011;28218;53.342;-6.216;2023-06-19T09:54:58;6.35;;;1.27;;
42590;SDS011;28218;53.342;-6.216;2023-06-19T09:57:31;1.85;;;1.23;;
42590;SDS011;28218;53.342;-6.216;2023-06-19T10:00:00;1.95;;;0.93;;
42590;SDS011;28218;53.342;-6.216;2023-06-19T10:02:39;4.00;;;1.45;;
42590;SDS011;28218;53.342;-6.216;2023-06-19T10:05:11;4.28;;;1.38;;
42590;SDS011;28218;53.342;-6.216;2023-06-19T10:07:41;3.97;;;1.52;;
42590;SDS011;28218;53.342;-6.216;2023-06-19T10:10:11;3.42;;;2.22;;
42590;SDS011;28218;53.342;-6.216;2023-06-19T10:12:50;3.65;;;1.45;;
42590;SDS011;28218;53.342;-6.216;2023-06-19T10:15:19;1.42;;;1.17;;
42590;SDS011;28218;53.342;-6.216;2023-06-19T10:17:48;4.80;;;1.77;;
42590;SDS011;28218;53.342;-6.216;2023-06-19T10:20:21;4.05;;;1.42;;
42590;SDS011;28218;53.342;-6.216;2023-06-19T10:22:52;8.60;;;1.60;;
42590;SDS011;28218;53.342;-6.216;2023-06-19T10:25:24;2.40;;;1.05;;
42590;SDS011;28218;53.342;-6.216;2023-06-19T10:27:57;3.85;;;1.10;;
42590;SDS011;28218;53.342;-6.216;2023-06-19T10:30:26;2.15;;;1.23;;
42590;SDS011;28218;53.342;-6.216;2023-06-19T10:32:56;2.87;;;1.37;;
42590;SDS011;28218;53.342;-6.216;2023-06-19T10:35:26;1.42;;;1.23;;
42590;SDS011;28218;53.342;-6.216;2023-06-19T10:37:55;1.48;;;1.15;;
42590;SDS011;28218;53.342;-6.216;2023-06-19T10:40:23;1.85;;;1.20;;
42590;SDS011;28218;53.342;-6.216;2023-06-19T10:42:51;1.77;;;1.23;;
42590;SDS011;28218;53.342;-6.216;2023-06-19T10:45:20;1.60;;;1.23;;
42590;SDS011;28218;53.342;-6.216;2023-06-19T10:47:55;3.10;;;1.20;;
42590;SDS011;28218;53.342;-6.216;2023-06-19T10:50:24;3.08;;;1.38;;
42590;SDS011;28218;53.342;-6.216;2023-06-19T10:52:54;6.68;;;3.05;;
42590;SDS011;28218;53.342;-6.216;2023-06-19T10:55:22;2.95;;;1.17;;
42590;SDS011;28218;53.342;-6.216;2023-06-19T10:57:51;1.45;;;1.00;;
42590;SDS011;28218;53.342;-6.216;2023-06-19T11:00:22;2.95;;;1.27;;
42590;SDS011;28218;53.342;-6.216;2023-06-19T11:02:52;4.68;;;1.30;;
42590;SDS011;28218;53.342;-6.216;2023-06-19T11:05:21;2.53;;;1.33;;
42590;SDS011;28218;53.342;-6.216;2023-06-19T11:07:50;5.05;;;1.70;;
42590;SDS011;28218;53.342;-6.216;2023-06-19T11:10:21;3.88;;;1.30;;
42590;SDS011;28218;53.342;-6.216;2023-06-19T11:12:52;6.32;;;1.45;;
42590;SDS011;28218;53.342;-6.216;2023-06-19T11:15:28;3.17;;;1.50;;
42590;SDS011;28218;53.342;-6.216;2023-06-19T11:17:57;2.28;;;1.52;;
42590;SDS011;28218;53.342;-6.216;2023-06-19T11:20:26;2.38;;;1.92;;
42590;SDS011;28218;53.342;-6.216;2023-06-19T11:22:55;2.33;;;1.40;;
42590;SDS011;28218;53.342;-6.216;2023-06-19T11:25:35;1.35;;;1.20;;
42590;SDS011;28218;53.342;-6.216;2023-06-19T11:28:05;2.65;;;1.45;;
42590;SDS011;28218;53.342;-6.216;2023-06-19T11:30:40;3.70;;;1.50;;
42590;SDS011;28218;53.342;-6.216;2023-06-19T11:33:16;2.83;;;1.52;;
42590;SDS011;28218;53.342;-6.216;2023-06-19T11:35:49;2.92;;;1.40;;
42590;SDS011;28218;53.342;-6.216;2023-06-19T11:38:18;3.67;;;1.27;;
42590;SDS011;28218;53.342;-6.216;2023-06-19T11:40:49;2.45;;;1.30;;
42590;SDS011;28218;53.342;-6.216;2023-06-19T11:43:24;8.57;;;1.50;;
42590;SDS011;28218;53.342;-6.216;2023-06-19T11:45:53;2.92;;;1.30;;
42590;SDS011;28218;53.342;-6.216;2023-06-19T11:48:22;1.40;;;1.00;;
42590;SDS011;28218;53.342;-6.216;2023-06-19T11:50:51;1.70;;;1.10;;
42590;SDS011;28218;53.342;-6.216;2023-06-19T11:53:20;4.15;;;1.63;;
42590;SDS011;28218;53.342;-6.216;2023-06-19T11:55:51;10.85;;;2.05;;
42590;SDS011;28218;53.342;-6.216;2023-06-19T11:58:19;8.82;;;1.88;;
42590;SDS011;28218;53.342;-6.216;2023-06-19T12:00:48;12.23;;;1.98;;
42590;SDS011;28218;53.342;-6.216;2023-06-19T12:03:16;10.68;;;2.70;;
42590;SDS011;28218;53.342;-6.216;2023-06-19T12:05:45;11.20;;;1.95;;
42590;SDS011;28218;53.342;-6.216;2023-06-19T12:08:14;18.17;;;3.15;;
42590;SDS011;28218;53.342;-6.216;2023-06-19T12:10:43;9.35;;;2.42;;
42590;SDS011;28218;53.342;-6.216;2023-06-19T12:13:13;5.70;;;1.90;;
42590;SDS011;28218;53.342;-6.216;2023-06-19T12:15:41;3.28;;;1.65;;
42590;SDS011;28218;53.342;-6.216;2023-06-19T12:18:10;5.70;;;1.75;;
42590;SDS011;28218;53.342;-6.216;2023-06-19T12:20:39;16.15;;;3.30;;
42590;SDS011;28218;53.342;-6.216;2023-06-19T12:23:07;9.85;;;2.50;;
42590;SDS011;28218;53.342;-6.216;2023-06-19T12:25:35;7.70;;;2.47;;
42590;SDS011;28218;53.342;-6.216;2023-06-19T12:28:04;13.15;;;2.67;;
42590;SDS011;28218;53.342;-6.216;2023-06-19T12:30:37;5.28;;;1.67;;
42590;SDS011;28218;53.342;-6.216;2023-06-19T12:33:05;4.65;;;1.30;;
42590;SDS011;28218;53.342;-6.216;2023-06-19T12:35:34;1.95;;;1.08;;
42590;SDS011;28218;53.342;-6.216;2023-06-19T12:38:02;2.70;;;1.83;;
42590;SDS011;28218;53.342;-6.216;2023-06-19T12:40:33;2.05;;;1.65;;
42590;SDS011;28218;53.342;-6.216;2023-06-19T12:43:01;2.25;;;1.25;;
42590;SDS011;28218;53.342;-6.216;2023-06-19T12:45:29;2.67;;;1.25;;
42590;SDS011;28218;53.342;-6.216;2023-06-19T12:47:59;1.23;;;1.13;;
42590;SDS011;28218;53.342;-6.216;2023-06-19T12:50:27;1.73;;;1.13;;
42590;SDS011;28218;53.342;-6.216;2023-06-19T12:52:56;0.95;;;0.90;;
42590;SDS011;28218;53.342;-6.216;2023-06-19T12:55:24;4.82;;;1.17;;
42590;SDS011;28218;53.342;-6.216;2023-06-19T12:57:52;9.75;;;2.13;;
42590;SDS011;28218;53.342;-6.216;2023-06-19T13:00:20;16.35;;;2.70;;
42590;SDS011;28218;53.342;-6.216;2023-06-19T13:02:49;16.63;;;3.10;;
42590;SDS011;28218;53.342;-6.216;2023-06-19T13:05:19;16.08;;;2.17;;
42590;SDS011;28218;53.342;-6.216;2023-06-19T13:07:47;21.13;;;2.53;;
42590;SDS011;28218;53.342;-6.216;2023-06-19T13:10:15;16.17;;;2.05;;
42590;SDS011;28218;53.342;-6.216;2023-06-19T13:12:44;9.63;;;2.40;;
42590;SDS011;28218;53.342;-6.216;2023-06-19T13:15:12;14.15;;;2.80;;
42590;SDS011;28218;53.342;-6.216;2023-06-19T13:17:40;12.00;;;2.58;;
42590;SDS011;28218;53.342;-6.216;2023-06-19T13:20:09;12.57;;;3.63;;
42590;SDS011;28218;53.342;-6.216;2023-06-19T13:22:38;5.93;;;2.05;;
42590;SDS011;28218;53.342;-6.216;2023-06-19T13:25:07;14.68;;;2.25;;
42590;SDS011;28218;53.342;-6.216;2023-06-19T13:27:35;7.80;;;2.47;;
42590;SDS011;28218;53.342;-6.216;2023-06-19T13:30:04;19.48;;;3.78;;
42590;SDS011;28218;53.342;-6.216;2023-06-19T13:32:34;23.92;;;4.80;;
42590;SDS011;28218;53.342;-6.216;2023-06-19T13:35:02;19.42;;;3.85;;
42590;SDS011;28218;53.342;-6.216;2023-06-19T13:37:32;17.73;;;3.55;;
42590;SDS011;28218;53.342;-6.216;2023-06-19T13:40:03;17.67;;;3.10;;
42590;SDS011;28218;53.342;-6.216;2023-06-19T13:42:32;7.15;;;2.05;;
42590;SDS011;28218;53.342;-6.216;2023-06-19T13:45:01;30.60;;;4.53;;
42590;SDS011;28218;53.342;-6.216;2023-06-19T13:47:30;41.75;;;5.88;;
42590;SDS011;28218;53.342;-6.216;2023-06-19T13:49:58;16.60;;;2.55;;
42590;SDS011;28218;53.342;-6.216;2023-06-19T13:52:26;21.65;;;2.00;;
42590;SDS011;28218;53.342;-6.216;2023-06-19T13:54:55;90.50;;;12.20;;
42590;SDS011;28218;53.342;-6.216;2023-06-19T13:57:25;71.80;;;7.90;;
42590;SDS011;28218;53.342;-6.216;2023-06-19T13:59:53;21.10;;;3.22;;
42590;SDS011;28218;53.342;-6.216;2023-06-19T14:02:21;6.63;;;2.08;;
42590;SDS011;28218;53.342;-6.216;2023-06-19T14:04:50;10.10;;;2.28;;
42590;SDS011;28218;53.342;-6.216;2023-06-19T14:07:19;6.93;;;2.13;;
42590;SDS011;28218;53.342;-6.216;2023-06-19T14:09:48;7.88;;;1.85;;
42590;SDS011;28218;53.342;-6.216;2023-06-19T14:14:49;11.27;;;1.80;;
42590;SDS011;28218;53.342;-6.216;2023-06-19T14:17:18;7.60;;;1.30;;
42590;SDS011;28218;53.342;-6.216;2023-06-19T14:19:46;10.07;;;1.63;;
42590;SDS011;28218;53.342;-6.216;2023-06-19T14:22:17;6.13;;;1.90;;
42590;SDS011;28218;53.342;-6.216;2023-06-19T14:24:45;10.50;;;2.50;;
42590;SDS011;28218;53.342;-6.216;2023-06-19T14:27:14;11.15;;;2.25;;
42590;SDS011;28218;53.342;-6.216;2023-06-19T14:29:42;21.48;;;3.00;;
42590;SDS011;28218;53.342;-6.216;2023-06-19T14:32:12;25.80;;;2.75;;
42590;SDS011;28218;53.342;-6.216;2023-06-19T14:34:40;11.07;;;2.00;;
42590;SDS011;28218;53.342;-6.216;2023-06-19T14:37:08;14.32;;;3.75;;
42590;SDS011;28218;53.342;-6.216;2023-06-19T14:39:37;11.15;;;2.17;;
42590;SDS011;28218;53.342;-6.216;2023-06-19T14:42:05;14.02;;;3.15;;
42590;SDS011;28218;53.342;-6.216;2023-06-19T14:44:34;12.00;;;2.67;;
42590;SDS011;28218;53.342;-6.216;2023-06-19T14:47:02;10.70;;;2.95;;
42590;SDS011;28218;53.342;-6.216;2023-06-19T14:49:32;10.05;;;3.45;;